»·PEaware :: N136GH KBFI-CYKA

N136GH :: KBFI-CYKA

FLIGHT INFORMATION

Flight Status: Arrived
Operator: Privately registered:
United States
More flights under this callsign
Pilot: Gabor H. (24209)
Aircraft: BEECH AIRCRAFT BONANZA
(BE36)
More flights by this aircraft type
Origin: KBFI Boeing Field/King Co Intl
United States
Destination: CYKA Kamloops
Canada
More flights between these airports :: More routes between these airports
Route: +NRVNA1 NRVNA PAE V23 HUH V349 JANEK V317 GUCHY
File this flight plan on PilotEdge
Remarks:
Altitude:
(Current/Filed)
11,000ft
Speed:
(Current/Filed)
160kts
Departed: 11-Mar-20 04:29 PM
Arrived: 11-Mar-20 06:10 PM
Distance/Time
Traveled:
204nm/1:40
Distance/Time
To Go:
Arrived

Flight Plot

Page will automatically refresh every two minutes.


Map Options




Map Legend


Flown Route
Filed Route
Departure Airport
Arrival Airport
Navaid (VOR, NDB)
Fix

Horizontal Profiles

Position Reports

Time Latitude Longitude Heading Altitude Ground
Speed
11-Mar-20 16:01 47.524851 -122.294972 228 20ft 0kts
11-Mar-20 16:02 47.524851 -122.294972 228 20ft 0kts
11-Mar-20 16:03 47.524851 -122.294972 228 20ft 0kts
11-Mar-20 16:06 47.524765 -122.295114 253 20ft 0kts
11-Mar-20 16:07 47.524765 -122.295114 253 20ft 0kts
11-Mar-20 16:08 47.524765 -122.295114 253 20ft 0kts
11-Mar-20 16:09 47.524765 -122.295114 253 20ft 0kts
11-Mar-20 16:10 47.524765 -122.295114 253 20ft 0kts
11-Mar-20 16:11 47.524765 -122.295114 253 20ft 0kts
11-Mar-20 16:12 47.524765 -122.295114 253 20ft 0kts
11-Mar-20 16:13 47.524765 -122.295114 253 20ft 0kts
11-Mar-20 16:14 47.524765 -122.295114 253 20ft 0kts
11-Mar-20 16:15 47.524765 -122.295114 253 20ft 0kts
11-Mar-20 16:16 47.524765 -122.295114 253 20ft 0kts
11-Mar-20 16:17 47.524765 -122.295114 253 20ft 0kts
11-Mar-20 16:18 47.524765 -122.295114 253 20ft 0kts
11-Mar-20 16:19 47.524765 -122.295114 253 20ft 0kts
11-Mar-20 16:20 47.524765 -122.295114 253 20ft 0kts
11-Mar-20 16:21 47.524765 -122.295114 253 20ft 0kts
11-Mar-20 16:22 47.524727 -122.296015 301 18ft 11kts
11-Mar-20 16:23 47.529242 -122.298789 339 18ft 18kts
11-Mar-20 16:24 47.533656 -122.302585 332 19ft 21kts
11-Mar-20 16:25 47.538993 -122.307422 330 20ft 23kts
11-Mar-20 16:26 47.540885 -122.309169 321 20ft 1kts
11-Mar-20 16:27 47.540881 -122.310083 240 18ft 11kts
11-Mar-20 16:28 47.529485 -122.302473 147 200ft 95kts
11-Mar-20 16:29 47.501258 -122.278128 150 1031ft 140kts
11-Mar-20 16:30 47.465168 -122.247786 150 1720ft 153kts
11-Mar-20 16:31 47.427704 -122.216284 149 2520ft 156kts
11-Mar-20 16:32 47.400037 -122.174571 69 3299ft 148kts
11-Mar-20 16:33 47.431179 -122.177026 334 4197ft 131kts
11-Mar-20 16:34 47.465613 -122.185303 350 5189ft 121kts
11-Mar-20 16:35 47.497506 -122.191841 349 6171ft 111kts
11-Mar-20 16:36 47.530851 -122.198657 348 6727ft 129kts
11-Mar-20 16:37 47.567651 -122.206078 348 7235ft 136kts
11-Mar-20 16:38 47.605235 -122.213654 348 7731ft 136kts
11-Mar-20 16:39 47.642720 -122.221226 347 8222ft 135kts
11-Mar-20 16:40 47.679757 -122.228724 346 8710ft 134kts
11-Mar-20 16:41 47.716366 -122.236145 346 9199ft 131kts
11-Mar-20 16:42 47.752217 -122.243427 345 9683ft 129kts
11-Mar-20 16:43 47.787385 -122.250567 344 10166ft 126kts
11-Mar-20 16:44 47.821844 -122.257608 344 10647ft 124kts
11-Mar-20 16:45 47.856089 -122.264679 344 10992ft 131kts
11-Mar-20 16:46 47.894677 -122.272628 345 10990ft 146kts
11-Mar-20 16:47 47.935454 -122.282340 342 10988ft 150kts
11-Mar-20 16:48 47.976721 -122.294092 342 10988ft 151kts
11-Mar-20 16:49 48.018006 -122.306000 342 10988ft 151kts
11-Mar-20 16:50 48.059263 -122.317933 342 10990ft 151kts
11-Mar-20 16:51 48.100419 -122.329861 342 11000ft 150kts
11-Mar-20 16:52 48.141849 -122.341902 342 11008ft 151kts
11-Mar-20 16:54 48.183275 -122.353940 342 11009ft 152kts
11-Mar-20 16:55 48.224744 -122.366019 342 11008ft 152kts
11-Mar-20 16:56 48.266279 -122.378137 342 11008ft 152kts
11-Mar-20 16:57 48.307920 -122.390292 342 11008ft 152kts
11-Mar-20 16:58 48.349507 -122.402462 342 11007ft 153kts
11-Mar-20 16:59 48.391238 -122.414670 342 11010ft 152kts
11-Mar-20 17:00 48.432902 -122.426928 342 11009ft 153kts
11-Mar-20 17:01 48.474696 -122.439249 342 11012ft 153kts
11-Mar-20 17:02 48.516309 -122.451474 342 11011ft 152kts
11-Mar-20 17:03 48.557990 -122.463755 342 11008ft 153kts
11-Mar-20 17:04 48.599764 -122.476156 342 11005ft 153kts
11-Mar-20 17:05 48.641448 -122.488463 342 11000ft 153kts
11-Mar-20 17:06 48.683285 -122.500797 341 11003ft 152kts
11-Mar-20 17:07 48.724742 -122.513144 341 11001ft 151kts
11-Mar-20 17:08 48.766034 -122.525421 341 10998ft 151kts
11-Mar-20 17:09 48.807263 -122.537719 341 10996ft 151kts
11-Mar-20 17:10 48.848592 -122.550075 341 10993ft 151kts
11-Mar-20 17:11 48.889785 -122.562421 341 10991ft 151kts
11-Mar-20 17:12 48.931119 -122.574834 341 10989ft 151kts
11-Mar-20 17:13 48.974052 -122.575628 354 10986ft 158kts
11-Mar-20 17:13 49.011034 -122.571926 357 10983ft 161kts
11-Mar-20 17:15 49.063996 -122.565688 359 10978ft 166kts
11-Mar-20 17:16 49.110759 -122.561424 0 10973ft 170kts
11-Mar-20 17:16 49.150368 -122.557994 0 10972ft 171kts
11-Mar-20 17:17 49.197918 -122.553982 0 10971ft 172kts
11-Mar-20 17:19 49.253601 -122.549336 0 10971ft 172kts
11-Mar-20 17:19 49.293494 -122.546048 0 10971ft 172kts
11-Mar-20 17:20 49.338658 -122.530034 46 10980ft 176kts
11-Mar-20 17:21 49.371009 -122.472984 47 10971ft 177kts
11-Mar-20 17:22 49.403806 -122.416203 46 10971ft 178kts
11-Mar-20 17:23 49.436703 -122.359403 46 10971ft 178kts
11-Mar-20 17:24 49.469626 -122.302475 46 10972ft 178kts
11-Mar-20 17:25 49.502408 -122.245675 46 10972ft 178kts
11-Mar-20 17:26 49.535292 -122.188588 46 10972ft 178kts
11-Mar-20 17:27 49.568143 -122.131409 46 10971ft 178kts
11-Mar-20 17:28 49.600901 -122.074247 46 10967ft 178kts
11-Mar-20 17:29 49.633693 -122.016945 46 10962ft 178kts
11-Mar-20 17:30 49.666345 -121.959724 46 10958ft 178kts
11-Mar-20 17:31 49.699038 -121.902334 46 10954ft 177kts
11-Mar-20 17:32 49.731591 -121.845062 46 10954ft 177kts
11-Mar-20 17:33 49.764063 -121.787779 46 10953ft 177kts
11-Mar-20 17:34 49.796604 -121.730253 46 10954ft 177kts
11-Mar-20 17:35 49.829045 -121.672802 46 10955ft 177kts
11-Mar-20 17:36 49.861595 -121.615009 46 10955ft 177kts
11-Mar-20 17:37 49.894010 -121.557320 46 10954ft 177kts
11-Mar-20 17:38 49.926406 -121.499562 46 10954ft 177kts
11-Mar-20 17:39 49.958808 -121.441655 46 10955ft 177kts
11-Mar-20 17:40 49.991155 -121.383690 46 10954ft 177kts
11-Mar-20 17:41 50.022833 -121.326827 47 11109ft 172kts
11-Mar-20 17:42 50.054635 -121.269635 47 11109ft 176kts
11-Mar-20 17:43 50.086780 -121.211634 47 11107ft 177kts
11-Mar-20 17:44 50.119049 -121.153218 46 11074ft 179kts
11-Mar-20 17:45 50.151561 -121.094249 45 11043ft 179kts
11-Mar-20 17:46 50.184055 -121.035229 44 11019ft 179kts
11-Mar-20 17:47 50.216191 -120.976758 43 11006ft 177kts
11-Mar-20 17:48 50.248061 -120.918737 42 11000ft 175kts
11-Mar-20 17:49 50.279614 -120.861146 42 11001ft 174kts
11-Mar-20 17:50 50.311165 -120.803463 42 11001ft 174kts
11-Mar-20 17:51 50.342625 -120.745708 42 11005ft 174kts
11-Mar-20 17:52 50.373950 -120.688067 42 11001ft 174kts
11-Mar-20 17:53 50.405109 -120.630599 42 11000ft 172kts
11-Mar-20 17:54 50.435809 -120.573860 42 11000ft 169kts
11-Mar-20 17:55 50.467237 -120.515751 43 10276ft 176kts
11-Mar-20 17:56 50.499039 -120.456685 43 9489ft 178kts
11-Mar-20 17:57 50.531226 -120.396793 43 8681ft 182kts
11-Mar-20 17:58 50.559429 -120.331939 72 8092ft 172kts
11-Mar-20 17:59 50.566841 -120.259479 78 7501ft 176kts
11-Mar-20 18:00 50.574009 -120.180796 74 6298ft 171kts
11-Mar-20 18:01 50.602562 -120.130897 13 5313ft 143kts
11-Mar-20 18:02 50.634941 -120.132025 332 4874ft 114kts
11-Mar-20 18:03 50.659459 -120.167497 295 4398ft 124kts
11-Mar-20 18:04 50.668799 -120.221277 283 3883ft 135kts
11-Mar-20 18:05 50.677855 -120.281089 283 3111ft 145kts
11-Mar-20 18:06 50.687007 -120.341798 283 2320ft 131kts
11-Mar-20 18:07 50.693882 -120.387350 283 1741ft 88kts
11-Mar-20 18:08 50.699093 -120.422048 284 1301ft 74kts
11-Mar-20 18:09 50.702167 -120.442894 284 1135ft 23kts
11-Mar-20 18:10 50.703370 -120.438494 105 1135ft 23kts
11-Mar-20 18:11 50.704287 -120.436021 338 1136ft 14kts
11-Mar-20 18:12 50.707089 -120.437540 330 1136ft 10kts
11-Mar-20 18:13 50.707153 -120.437358 148 1137ft 0kts

Navigation Log

Ident Type
Flight plan parsing failed, navigation log unavailable